createdAt,value
2023-01-29T00:01:58.219Z,8.93
2023-01-29T00:04:25.424Z,8.88
2023-01-29T00:06:52.013Z,7.90
2023-01-29T00:09:18.720Z,8.75
2023-01-29T00:11:45.317Z,8.00
2023-01-29T00:14:12.128Z,8.13
2023-01-29T00:16:38.706Z,8.98
2023-01-29T00:19:05.382Z,7.68
2023-01-29T00:21:32.315Z,8.15
2023-01-29T00:23:59.369Z,8.25
2023-01-29T00:26:26.905Z,9.00
2023-01-29T00:28:53.993Z,7.72
2023-01-29T00:31:23.128Z,9.00
2023-01-29T00:33:50.265Z,8.48
2023-01-29T00:36:18.613Z,7.72
2023-01-29T00:38:54.449Z,7.60
2023-01-29T00:41:40.364Z,8.13
2023-01-29T00:44:26.359Z,7.97
2023-01-29T00:46:53.132Z,7.38
2023-01-29T00:49:19.683Z,7.10
2023-01-29T00:52:06.279Z,7.60
2023-01-29T00:54:33.259Z,7.20
2023-01-29T00:57:00.141Z,6.72
2023-01-29T00:59:26.745Z,7.30
2023-01-29T01:02:12.009Z,6.60
2023-01-29T01:04:38.633Z,6.47
2023-01-29T01:07:05.297Z,7.15
2023-01-29T01:09:50.412Z,7.70
2023-01-29T01:12:16.922Z,6.50
2023-01-29T01:14:43.494Z,7.22
2023-01-29T01:17:10.039Z,7.35
2023-01-29T01:19:36.660Z,8.00
2023-01-29T01:22:04.976Z,8.63
2023-01-29T01:24:32.110Z,8.57
2023-01-29T01:26:58.885Z,8.50
2023-01-29T01:29:25.403Z,9.07
2023-01-29T01:31:54.064Z,9.77
2023-01-29T01:34:22.128Z,9.60
2023-01-29T01:36:49.295Z,10.32
2023-01-29T01:39:16.008Z,10.88
2023-01-29T01:41:42.545Z,9.52
2023-01-29T01:44:47.647Z,10.85
2023-01-29T01:47:15.670Z,10.25
2023-01-29T01:49:43.512Z,9.93
2023-01-29T01:52:11.331Z,9.85
2023-01-29T01:54:37.961Z,10.00
2023-01-29T01:57:15.851Z,9.27
2023-01-29T01:59:49.093Z,8.45
2023-01-29T02:02:36.062Z,8.55
2023-01-29T02:05:21.402Z,8.18
2023-01-29T02:08:08.910Z,8.02
2023-01-29T02:10:41.593Z,8.00
2023-01-29T02:13:08.372Z,7.70
2023-01-29T02:15:34.962Z,7.15
2023-01-29T02:18:01.838Z,7.75
2023-01-29T02:20:31.983Z,7.80
2023-01-29T02:23:32.041Z,7.32
2023-01-29T02:26:39.168Z,8.50
2023-01-29T02:29:25.315Z,7.78
2023-01-29T02:32:14.787Z,8.07
2023-01-29T02:35:11.288Z,8.40
2023-01-29T02:38:13.896Z,8.70
2023-01-29T02:41:03.708Z,8.05
2023-01-29T02:43:48.151Z,8.00
2023-01-29T02:46:36.408Z,8.05
2023-01-29T02:49:27.639Z,8.75
2023-01-29T02:52:07.521Z,8.20
2023-01-29T02:54:44.568Z,8.13
2023-01-29T02:57:25.505Z,8.95
2023-01-29T03:00:09.199Z,9.10
2023-01-29T03:02:48.625Z,8.65
2023-01-29T03:05:20.878Z,9.52
2023-01-29T03:07:56.517Z,9.52
2023-01-29T03:10:47.592Z,8.88
2023-01-29T03:13:35.342Z,9.13
2023-01-29T03:16:22.979Z,8.75
2023-01-29T03:18:55.030Z,8.65
2023-01-29T03:21:47.908Z,9.27
2023-01-29T03:24:36.783Z,9.95
2023-01-29T03:27:28.079Z,8.63
2023-01-29T03:30:14.986Z,9.43
2023-01-29T03:32:43.415Z,9.07
2023-01-29T03:35:11.584Z,9.63
2023-01-29T03:37:47.108Z,10.57
2023-01-29T03:40:15.187Z,9.27
2023-01-29T03:42:42.157Z,9.57
2023-01-29T03:45:18.034Z,10.27
2023-01-29T03:48:08.712Z,9.85
2023-01-29T03:50:41.068Z,10.15
2023-01-29T03:53:23.141Z,9.20
2023-01-29T03:55:56.293Z,9.60
2023-01-29T03:58:51.572Z,9.90
2023-01-29T04:01:26.468Z,9.20
2023-01-29T04:03:59.280Z,9.63
2023-01-29T04:06:30.307Z,9.48
2023-01-29T04:09:22.285Z,9.68
2023-01-29T04:12:00.995Z,10.35
2023-01-29T04:14:28.292Z,8.95
2023-01-29T04:17:00.160Z,10.07
2023-01-29T04:19:27.455Z,10.52
2023-01-29T04:22:04.101Z,9.00
2023-01-29T04:24:31.498Z,8.98
2023-01-29T04:27:17.684Z,9.43
2023-01-29T04:30:00.194Z,9.18
2023-01-29T04:33:06.943Z,9.32
2023-01-29T04:36:10.900Z,8.57
2023-01-29T04:39:13.290Z,9.00
2023-01-29T04:41:46.470Z,8.68
2023-01-29T04:44:16.068Z,8.55
2023-01-29T04:46:48.463Z,8.73
2023-01-29T04:49:49.335Z,8.48
2023-01-29T04:52:24.357Z,7.90
2023-01-29T04:54:54.631Z,8.48
2023-01-29T04:57:42.453Z,9.02
2023-01-29T05:00:40.567Z,8.38
2023-01-29T05:03:09.738Z,8.52
2023-01-29T05:05:37.135Z,8.43
2023-01-29T05:08:04.934Z,8.65
2023-01-29T05:10:31.656Z,8.43
2023-01-29T05:13:05.416Z,8.65
2023-01-29T05:15:48.810Z,8.65
2023-01-29T05:18:15.621Z,10.40
2023-01-29T05:20:44.188Z,9.77
2023-01-29T05:23:16.905Z,9.95
2023-01-29T05:25:44.613Z,10.07
2023-01-29T05:28:17.470Z,9.65
2023-01-29T05:30:49.066Z,9.27
2023-01-29T05:33:19.499Z,8.65
2023-01-29T05:35:46.700Z,9.55
2023-01-29T05:38:14.310Z,9.88
2023-01-29T05:40:41.079Z,9.50
2023-01-29T05:43:16.557Z,9.73
2023-01-29T05:45:43.439Z,9.05
2023-01-29T05:48:10.067Z,9.82
2023-01-29T05:50:36.677Z,10.02
2023-01-29T05:53:03.314Z,9.23
2023-01-29T05:55:29.979Z,9.52
2023-01-29T05:57:56.727Z,9.43
2023-01-29T06:00:23.533Z,8.70
2023-01-29T06:02:50.207Z,9.63
2023-01-29T06:05:17.031Z,8.45
2023-01-29T06:07:45.485Z,7.97
2023-01-29T06:10:15.012Z,9.27
2023-01-29T06:12:43.080Z,9.30
2023-01-29T06:15:15.529Z,9.80
2023-01-29T06:17:42.979Z,8.77
2023-01-29T06:20:10.320Z,9.00
2023-01-29T06:22:37.046Z,9.50
2023-01-29T06:25:04.074Z,9.23
2023-01-29T06:27:30.721Z,9.82
2023-01-29T06:29:57.358Z,9.43
2023-01-29T06:32:24.061Z,8.90
2023-01-29T06:34:50.708Z,9.65
2023-01-29T06:37:17.288Z,9.32
2023-01-29T06:39:44.375Z,9.45
2023-01-29T06:42:11.261Z,8.80
2023-01-29T06:44:38.000Z,8.95
2023-01-29T06:47:04.726Z,9.85
2023-01-29T06:49:31.625Z,9.27
2023-01-29T06:51:58.263Z,8.18
2023-01-29T06:54:24.997Z,8.30
2023-01-29T06:56:52.042Z,8.48
2023-01-29T06:59:18.647Z,8.88
2023-01-29T07:01:45.416Z,9.57
2023-01-29T07:04:12.211Z,8.95
2023-01-29T07:06:39.130Z,9.00
2023-01-29T07:09:05.820Z,6.63
2023-01-29T07:11:34.564Z,8.25
2023-01-29T07:14:01.200Z,8.68
2023-01-29T07:16:27.969Z,8.63
2023-01-29T07:18:54.676Z,9.30
2023-01-29T07:21:21.471Z,9.80
2023-01-29T07:23:48.248Z,8.55
2023-01-29T07:26:14.906Z,7.88
2023-01-29T07:28:41.699Z,8.25
2023-01-29T07:31:10.500Z,8.73
2023-01-29T07:33:37.175Z,8.60
2023-01-29T07:36:08.463Z,8.82
2023-01-29T07:38:35.197Z,7.47
2023-01-29T07:41:03.176Z,6.65
2023-01-29T07:43:30.400Z,7.85
2023-01-29T07:45:57.134Z,7.43
2023-01-29T07:48:23.791Z,8.35
2023-01-29T07:50:57.530Z,7.90
2023-01-29T07:53:24.145Z,7.68
2023-01-29T07:55:50.905Z,7.63
2023-01-29T07:58:17.641Z,7.10
2023-01-29T08:00:44.715Z,7.18
2023-01-29T08:03:14.188Z,6.78
2023-01-29T08:05:40.913Z,6.68
2023-01-29T08:08:08.068Z,7.18
2023-01-29T08:10:35.866Z,6.93
2023-01-29T08:13:03.744Z,6.47
2023-01-29T08:15:30.403Z,6.57
2023-01-29T08:20:43.901Z,5.88
2023-01-29T08:23:14.583Z,6.70
2023-01-29T08:25:41.779Z,6.82
2023-01-29T08:28:08.913Z,7.13
2023-01-29T08:30:36.115Z,6.20
2023-01-29T08:33:04.378Z,6.63
2023-01-29T08:35:31.108Z,6.80
2023-01-29T08:38:00.466Z,7.28
2023-01-29T08:40:34.027Z,6.90
2023-01-29T08:43:07.126Z,6.18
2023-01-29T08:45:37.584Z,6.78
2023-01-29T08:48:04.548Z,6.50
2023-01-29T08:50:32.447Z,6.70
2023-01-29T08:53:00.681Z,7.45
2023-01-29T08:55:28.262Z,7.18
2023-01-29T08:57:55.115Z,6.43
2023-01-29T09:00:22.001Z,6.57
2023-01-29T09:02:48.956Z,6.32
2023-01-29T09:05:15.867Z,6.72
2023-01-29T09:07:42.703Z,6.10
2023-01-29T09:10:11.975Z,6.57
2023-01-29T09:12:38.588Z,6.65
2023-01-29T09:15:05.541Z,6.45
2023-01-29T09:17:32.149Z,7.25
2023-01-29T09:19:58.847Z,6.85
2023-01-29T09:22:25.669Z,6.90
2023-01-29T09:24:52.341Z,6.65
2023-01-29T09:27:19.095Z,6.88
2023-01-29T09:29:45.767Z,6.90
2023-01-29T09:32:12.571Z,6.60
2023-01-29T09:34:39.206Z,7.20
2023-01-29T09:37:06.716Z,6.90
2023-01-29T09:39:33.515Z,6.55
2023-01-29T09:42:22.786Z,6.63
2023-01-29T09:45:13.836Z,6.55
2023-01-29T09:47:42.456Z,5.97
2023-01-29T09:50:15.330Z,6.82
2023-01-29T09:53:01.556Z,6.68
2023-01-29T09:55:36.640Z,6.72
2023-01-29T09:58:22.182Z,5.57
2023-01-29T10:00:51.912Z,5.78
2023-01-29T10:03:33.986Z,6.22
2023-01-29T10:06:19.405Z,5.30
2023-01-29T10:09:01.287Z,5.85
2023-01-29T10:12:01.805Z,5.47
2023-01-29T10:14:46.756Z,5.35
2023-01-29T10:17:31.825Z,5.72
2023-01-29T10:19:58.458Z,6.20
2023-01-29T10:22:34.724Z,6.20
2023-01-29T10:25:10.068Z,6.60
2023-01-29T10:27:40.466Z,6.55
2023-01-29T10:30:21.345Z,7.13
2023-01-29T10:32:49.379Z,6.65
2023-01-29T10:35:25.152Z,8.05
2023-01-29T10:37:55.106Z,7.47
2023-01-29T10:40:38.635Z,6.25
2023-01-29T10:43:35.641Z,6.05
2023-01-29T10:46:16.458Z,5.00
2023-01-29T10:49:17.084Z,5.78
2023-01-29T10:51:55.809Z,5.97
2023-01-29T10:54:52.197Z,6.13
2023-01-29T10:57:38.299Z,6.53
2023-01-29T11:00:21.897Z,5.90
2023-01-29T11:02:50.552Z,6.22
2023-01-29T11:05:20.741Z,6.18
2023-01-29T11:07:49.519Z,5.93
2023-01-29T11:10:20.221Z,6.32
2023-01-29T11:12:47.179Z,6.10
2023-01-29T11:15:19.537Z,5.90
2023-01-29T11:18:14.241Z,5.55
2023-01-29T11:20:42.869Z,6.07
2023-01-29T11:23:29.644Z,5.38
2023-01-29T11:25:58.356Z,7.43
2023-01-29T11:28:45.300Z,7.47
2023-01-29T11:31:16.735Z,8.27
2023-01-29T11:33:44.219Z,11.63
2023-01-29T11:36:38.376Z,6.75
2023-01-29T11:39:22.981Z,6.13
2023-01-29T11:41:52.678Z,12.43
2023-01-29T11:44:27.320Z,8.88
2023-01-29T11:46:54.409Z,8.02
2023-01-29T11:49:27.719Z,8.35
2023-01-29T11:51:56.693Z,8.25
2023-01-29T11:54:28.975Z,6.93
2023-01-29T11:56:56.160Z,6.97
2023-01-29T11:59:34.746Z,6.75
2023-01-29T12:02:16.355Z,6.28
2023-01-29T12:04:43.232Z,6.25
2023-01-29T12:07:18.001Z,6.57
2023-01-29T12:09:56.562Z,6.78
2023-01-29T12:12:31.037Z,7.32
2023-01-29T12:15:21.426Z,9.13
2023-01-29T12:17:58.494Z,10.00
2023-01-29T12:20:35.359Z,8.55
2023-01-29T12:23:21.393Z,6.07
2023-01-29T12:25:53.034Z,6.80
2023-01-29T12:28:31.720Z,5.82
2023-01-29T12:31:15.669Z,5.70
2023-01-29T12:33:47.940Z,7.00
2023-01-29T12:36:26.584Z,7.32
2023-01-29T12:38:54.938Z,6.30
2023-01-29T12:41:33.883Z,7.18
2023-01-29T12:44:17.860Z,6.43
2023-01-29T12:46:50.713Z,6.72
2023-01-29T12:49:24.386Z,6.00
2023-01-29T12:52:46.633Z,6.07
2023-01-29T12:55:36.989Z,5.15
2023-01-29T12:58:05.725Z,4.85
2023-01-29T13:00:38.594Z,4.85
2023-01-29T13:03:21.278Z,4.85
2023-01-29T13:05:52.417Z,5.32
2023-01-29T13:08:37.145Z,6.15
2023-01-29T13:11:13.043Z,6.53
2023-01-29T13:13:58.554Z,6.03
2023-01-29T13:16:30.503Z,6.75
2023-01-29T13:19:04.810Z,6.68
2023-01-29T13:21:38.235Z,7.40
2023-01-29T13:24:11.216Z,8.65
2023-01-29T13:26:38.914Z,8.47
2023-01-29T13:29:05.781Z,6.75
2023-01-29T13:31:37.080Z,7.18
2023-01-29T13:34:31.628Z,6.82
2023-01-29T13:37:01.437Z,7.32
2023-01-29T13:39:34.374Z,7.93
2023-01-29T13:42:04.055Z,7.15
2023-01-29T13:44:37.167Z,16.75
2023-01-29T13:47:24.148Z,7.00
2023-01-29T13:49:57.998Z,7.13
2023-01-29T13:52:27.462Z,6.75
2023-01-29T13:55:05.353Z,7.57
2023-01-29T13:57:44.740Z,6.80
2023-01-29T14:00:34.868Z,6.82
2023-01-29T14:03:01.495Z,6.72
2023-01-29T14:05:31.215Z,6.85
2023-01-29T14:07:59.462Z,6.72
2023-01-29T14:10:31.277Z,7.00
2023-01-29T14:13:03.861Z,7.65
2023-01-29T14:15:34.164Z,6.60
2023-01-29T14:18:03.890Z,7.25
2023-01-29T14:20:45.731Z,6.47
2023-01-29T14:23:36.130Z,7.25
2023-01-29T14:26:18.419Z,6.53
2023-01-29T14:29:14.513Z,5.95
2023-01-29T14:31:45.130Z,5.50
2023-01-29T14:34:35.434Z,6.65
2023-01-29T14:37:21.313Z,5.57
2023-01-29T14:40:19.817Z,5.22
2023-01-29T14:43:02.868Z,5.47
2023-01-29T14:45:34.980Z,5.50
2023-01-29T14:48:10.799Z,5.20
2023-01-29T14:50:37.987Z,5.90
2023-01-29T14:53:16.702Z,5.45
2023-01-29T14:55:45.714Z,5.82
2023-01-29T14:58:19.809Z,6.15
2023-01-29T15:00:53.494Z,6.50
2023-01-29T15:03:29.393Z,6.22
2023-01-29T15:05:59.145Z,6.55
2023-01-29T15:08:43.871Z,6.53
2023-01-29T15:11:36.161Z,6.05
2023-01-29T15:14:06.411Z,6.80
2023-01-29T15:16:48.791Z,6.88
2023-01-29T15:19:28.659Z,7.30
2023-01-29T15:22:13.651Z,7.40
2023-01-29T15:24:42.203Z,6.88
2023-01-29T15:27:18.713Z,6.88
2023-01-29T15:29:56.406Z,7.68
2023-01-29T15:32:31.260Z,7.57
2023-01-29T15:34:58.852Z,7.40
2023-01-29T15:37:36.181Z,7.05
2023-01-29T15:40:03.999Z,6.32
2023-01-29T15:42:44.776Z,6.93
2023-01-29T15:45:32.387Z,7.25
2023-01-29T15:48:07.160Z,7.47
2023-01-29T15:50:37.318Z,8.32
2023-01-29T15:53:09.979Z,8.02
2023-01-29T15:55:36.836Z,6.57
2023-01-29T15:58:04.250Z,7.20
2023-01-29T16:00:31.505Z,6.80
2023-01-29T16:03:00.752Z,6.97
2023-01-29T16:05:33.153Z,6.65
2023-01-29T16:08:00.989Z,7.07
2023-01-29T16:10:30.768Z,7.93
2023-01-29T16:12:58.492Z,8.10
2023-01-29T16:15:34.935Z,7.15
2023-01-29T16:18:04.713Z,8.00
2023-01-29T16:20:39.259Z,7.38
2023-01-29T16:23:07.024Z,6.72
2023-01-29T16:25:36.826Z,7.43
2023-01-29T16:28:05.463Z,7.95
2023-01-29T16:30:32.253Z,7.80
2023-01-29T16:33:07.028Z,7.03
2023-01-29T16:35:35.183Z,6.90
2023-01-29T16:38:06.735Z,7.20
2023-01-29T16:40:37.606Z,7.20
2023-01-29T16:43:19.913Z,7.22
2023-01-29T16:46:15.765Z,6.93
2023-01-29T16:48:42.439Z,6.47
2023-01-29T16:51:20.712Z,7.22
2023-01-29T16:53:58.746Z,6.90
2023-01-29T16:56:28.363Z,6.88
2023-01-29T16:58:55.709Z,6.63
2023-01-29T17:01:26.427Z,7.47
2023-01-29T17:04:11.499Z,7.43
2023-01-29T17:06:42.858Z,8.52
2023-01-29T17:09:21.436Z,6.72
2023-01-29T17:11:53.936Z,7.25
2023-01-29T17:14:20.707Z,7.15
2023-01-29T17:16:53.737Z,6.88
2023-01-29T17:19:20.842Z,6.83
2023-01-29T17:21:47.913Z,7.03
2023-01-29T17:24:14.600Z,6.60
2023-01-29T17:26:41.944Z,6.35
2023-01-29T17:29:20.351Z,7.80
2023-01-29T17:31:47.188Z,8.40
2023-01-29T17:34:15.268Z,9.75
2023-01-29T17:36:46.066Z,7.32
2023-01-29T17:39:16.368Z,7.63
2023-01-29T17:41:46.587Z,6.63
2023-01-29T17:44:13.971Z,6.82
2023-01-29T17:46:40.580Z,7.03
2023-01-29T17:49:33.832Z,6.75
2023-01-29T17:52:00.464Z,6.50
2023-01-29T17:54:27.708Z,8.43
2023-01-29T17:56:54.754Z,11.50
2023-01-29T17:59:24.159Z,13.07
2023-01-29T18:01:51.564Z,12.43
2023-01-29T18:04:18.309Z,27.10
2023-01-29T18:06:47.899Z,14.60
2023-01-29T18:09:17.092Z,18.85
2023-01-29T18:11:43.784Z,19.88
2023-01-29T18:14:13.793Z,17.73
2023-01-29T18:16:45.098Z,26.70
2023-01-29T18:19:23.698Z,23.30
2023-01-29T18:21:51.199Z,17.98
2023-01-29T18:24:18.752Z,19.90
2023-01-29T18:26:45.491Z,21.00
2023-01-29T18:29:12.349Z,21.00
2023-01-29T18:31:39.022Z,17.85
2023-01-29T18:34:05.722Z,15.60
2023-01-29T18:36:32.485Z,17.10
2023-01-29T18:38:59.199Z,17.10
2023-01-29T18:41:25.796Z,19.73
2023-01-29T18:43:52.968Z,16.30
2023-01-29T18:46:20.826Z,19.50
2023-01-29T18:48:47.443Z,19.20
2023-01-29T18:51:14.091Z,21.90
2023-01-29T18:53:40.831Z,16.23
2023-01-29T18:56:07.946Z,13.23
2023-01-29T18:58:36.423Z,11.73
2023-01-29T19:01:09.403Z,10.27
2023-01-29T19:03:37.009Z,9.83
2023-01-29T19:06:05.215Z,10.35
2023-01-29T19:08:32.038Z,10.48
2023-01-29T19:11:02.339Z,10.27
2023-01-29T19:13:30.235Z,9.15
2023-01-29T19:15:57.051Z,10.57
2023-01-29T19:18:26.094Z,10.55
2023-01-29T19:20:53.185Z,9.95
2023-01-29T19:23:20.058Z,11.20
2023-01-29T19:25:46.719Z,10.70
2023-01-29T19:28:13.443Z,9.77
2023-01-29T19:30:40.200Z,9.63
2023-01-29T19:33:07.074Z,9.93
2023-01-29T19:35:34.101Z,11.55
2023-01-29T19:38:01.192Z,11.93
2023-01-29T19:40:27.948Z,12.05
2023-01-29T19:42:55.812Z,12.90
2023-01-29T19:45:37.127Z,14.00
2023-01-29T19:48:13.684Z,17.23
2023-01-29T19:50:40.326Z,17.60
2023-01-29T19:53:06.920Z,17.48
2023-01-29T19:55:33.600Z,16.55
2023-01-29T19:58:00.245Z,15.88
2023-01-29T20:00:26.899Z,16.50
2023-01-29T20:02:53.537Z,16.23
2023-01-29T20:05:20.534Z,14.25
2023-01-29T20:07:47.371Z,12.98
2023-01-29T20:10:17.520Z,14.82
2023-01-29T20:12:45.323Z,16.52
2023-01-29T20:15:13.423Z,17.17
2023-01-29T20:17:40.701Z,12.48
2023-01-29T20:20:08.618Z,13.23
2023-01-29T20:22:35.417Z,13.45
2023-01-29T20:25:05.240Z,13.23
2023-01-29T20:27:31.855Z,15.00
2023-01-29T20:29:59.779Z,14.85
2023-01-29T20:32:26.479Z,14.02
2023-01-29T20:34:53.127Z,14.35
2023-01-29T20:37:19.899Z,15.77
2023-01-29T20:39:46.749Z,15.23
2023-01-29T20:42:13.428Z,14.63
2023-01-29T20:44:40.138Z,15.93
2023-01-29T20:47:06.821Z,14.18
2023-01-29T20:49:33.487Z,14.93
2023-01-29T20:52:00.132Z,13.93
2023-01-29T20:54:26.818Z,13.90
2023-01-29T20:56:53.940Z,15.43
2023-01-29T20:59:20.596Z,14.32
2023-01-29T21:01:47.327Z,14.13
2023-01-29T21:04:13.991Z,14.07
2023-01-29T21:06:40.599Z,14.77
2023-01-29T21:09:07.261Z,14.07
2023-01-29T21:11:33.948Z,12.50
2023-01-29T21:14:02.003Z,12.07
2023-01-29T21:16:28.982Z,11.13
2023-01-29T21:18:57.090Z,11.02
2023-01-29T21:21:24.158Z,11.20
2023-01-29T21:23:51.378Z,10.32
2023-01-29T21:26:18.957Z,10.70
2023-01-29T21:28:46.227Z,12.13
2023-01-29T21:31:17.684Z,11.18
2023-01-29T21:33:44.801Z,10.70
2023-01-29T21:36:11.709Z,10.95
2023-01-29T21:38:39.090Z,10.60
2023-01-29T21:41:09.640Z,10.50
2023-01-29T21:43:36.711Z,9.95
2023-01-29T21:46:12.071Z,10.13
2023-01-29T21:48:40.051Z,9.65
2023-01-29T21:51:07.483Z,10.38
2023-01-29T21:53:34.620Z,10.30
2023-01-29T21:56:05.504Z,10.02
2023-01-29T21:58:32.412Z,10.57
2023-01-29T22:01:35.791Z,11.05
2023-01-29T22:03:47.350Z,10.23
2023-01-29T22:06:14.581Z,9.82
2023-01-29T22:08:41.196Z,10.75
2023-01-29T22:11:08.056Z,11.80
2023-01-29T22:13:35.115Z,10.02
2023-01-29T22:16:01.899Z,10.50
2023-01-29T22:18:28.502Z,10.35
2023-01-29T22:20:56.484Z,10.80
2023-01-29T22:23:23.628Z,10.60
2023-01-29T22:25:53.732Z,10.23
2023-01-29T22:28:20.584Z,10.88
2023-01-29T22:30:47.253Z,9.95
2023-01-29T22:33:13.990Z,9.43
2023-01-29T22:35:40.649Z,10.27
2023-01-29T22:38:07.753Z,9.98
2023-01-29T22:40:34.347Z,9.68
2023-01-29T22:43:01.158Z,8.98
2023-01-29T22:45:27.774Z,10.20
2023-01-29T22:47:54.365Z,10.27
2023-01-29T22:50:21.164Z,10.70
2023-01-29T22:52:53.677Z,8.75
2023-01-29T22:55:20.819Z,8.82
2023-01-29T22:57:50.419Z,9.75
2023-01-29T23:00:18.022Z,8.95
2023-01-29T23:02:47.131Z,9.63
2023-01-29T23:05:13.771Z,9.38
2023-01-29T23:07:40.492Z,9.85
2023-01-29T23:10:07.795Z,8.85
2023-01-29T23:12:34.520Z,10.52
2023-01-29T23:15:01.152Z,11.15
2023-01-29T23:17:28.023Z,11.27
2023-01-29T23:19:54.608Z,10.82
2023-01-29T23:22:21.234Z,9.40
2023-01-29T23:24:47.904Z,10.80
2023-01-29T23:27:14.595Z,10.57
2023-01-29T23:29:46.701Z,9.52
2023-01-29T23:32:19.133Z,11.00
2023-01-29T23:34:45.756Z,10.48
2023-01-29T23:37:12.413Z,11.02
2023-01-29T23:39:39.029Z,10.02
2023-01-29T23:42:05.900Z,9.27
2023-01-29T23:44:32.588Z,9.38
2023-01-29T23:46:59.422Z,9.77
2023-01-29T23:49:26.077Z,8.82
2023-01-29T23:51:52.844Z,10.48
2023-01-29T23:54:19.600Z,10.20
2023-01-29T23:56:46.232Z,9.73
2023-01-29T23:59:12.975Z,9.82
